Time;durP1;ratioP1;P1;durP2;ratioP2;P2;SDS_P1;SDS_P2;PMS_P1;PMS_P2;Temp;Humidity;BMP_temperature;BMP_pressure;BME280_temperature;BME280_humidity;BME280_pressure;Samples;Min_cycle;Max_cycle;Signal;HPM_P1;HPM_P2
2021/12/12 00:02:34;;;;;;;27.30;10.43;;;2.60;99.90;;;;;;5079349;28;20151;-78
2021/12/12 00:05:07;;;;;;;21.67;11.03;;;2.60;99.90;;;;;;5061218;28;20202;-79
2021/12/12 00:07:34;;;;;;;24.17;10.80;;;2.60;99.90;;;;;;5079310;28;20305;-78
2021/12/12 00:10:06;;;;;;;22.50;10.30;;;2.60;99.90;;;;;;5079740;28;20190;-79
2021/12/12 00:12:42;;;;;;;24.40;10.77;;;2.60;99.90;;;;;;5061274;28;20175;-78
2021/12/12 00:15:09;;;;;;;26.77;11.23;;;2.60;99.90;;;;;;5061377;28;20212;-79
2021/12/12 00:17:35;;;;;;;20.00;10.60;;;2.70;99.90;;;;;;5079494;28;20261;-79
2021/12/12 00:20:03;;;;;;;22.03;11.43;;;2.70;99.90;;;;;;5079154;28;20253;-79
2021/12/12 00:22:30;;;;;;;25.77;11.00;;;2.70;99.90;;;;;;5061273;28;20206;-79
2021/12/12 00:24:56;;;;;;;23.03;11.30;;;2.70;99.90;;;;;;5061973;28;20210;-78
2021/12/12 00:27:22;;;;;;;23.63;10.37;;;2.70;99.90;;;;;;5065893;28;20179;-78
2021/12/12 00:29:48;;;;;;;19.50;10.13;;;2.70;99.90;;;;;;5078425;28;20198;-78
2021/12/12 00:32:16;;;;;;;24.37;10.63;;;2.70;99.90;;;;;;5078504;28;20163;-78
2021/12/12 00:34:49;;;;;;;19.93;10.07;;;2.70;99.90;;;;;;5078623;28;20183;-79
2021/12/12 00:37:16;;;;;;;23.37;11.00;;;2.80;99.90;;;;;;5078740;28;20164;-78
2021/12/12 00:39:47;;;;;;;24.27;10.83;;;2.80;99.90;;;;;;5078814;28;20183;-79
2021/12/12 00:42:18;;;;;;;27.03;11.00;;;2.80;99.90;;;;;;5060083;28;20229;-78
2021/12/12 00:44:47;;;;;;;19.27;10.20;;;2.80;99.90;;;;;;5060130;28;20645;-79
2021/12/12 00:47:13;;;;;;;24.93;10.53;;;2.80;99.90;;;;;;5059499;28;20720;-78
2021/12/12 00:49:40;;;;;;;26.70;10.43;;;2.80;99.90;;;;;;5077049;28;20221;-78
2021/12/12 00:52:10;;;;;;;17.63;10.07;;;2.80;99.90;;;;;;5059918;28;20644;-78
2021/12/12 00:54:37;;;;;;;23.07;10.40;;;2.80;99.90;;;;;;5059574;28;20183;-78
2021/12/12 00:57:06;;;;;;;23.03;10.60;;;2.80;99.90;;;;;;5060307;28;20179;-78
2021/12/12 00:59:32;;;;;;;19.70;10.80;;;2.80;99.90;;;;;;5059843;28;20559;-79
2021/12/12 01:01:58;;;;;;;24.20;9.73;;;2.90;99.90;;;;;;5059890;28;20199;-78
2021/12/12 01:04:29;;;;;;;24.37;9.73;;;2.90;99.90;;;;;;5077715;28;20205;-78
2021/12/12 01:06:57;;;;;;;19.10;9.93;;;2.90;99.90;;;;;;5077894;28;20172;-78
2021/12/12 01:09:27;;;;;;;19.57;9.43;;;2.90;99.90;;;;;;5077375;28;20661;-78
2021/12/12 01:11:58;;;;;;;25.63;9.93;;;2.90;99.90;;;;;;5077972;28;20224;-78
2021/12/12 01:14:28;;;;;;;19.17;10.00;;;3.00;99.90;;;;;;5078574;28;20171;-78
2021/12/12 01:17:05;;;;;;;17.00;9.40;;;2.90;99.90;;;;;;5059430;28;20200;-78
2021/12/12 01:19:37;;;;;;;20.27;9.67;;;3.00;99.90;;;;;;5059193;28;20182;-78
2021/12/12 01:22:07;;;;;;;24.47;9.57;;;2.90;99.90;;;;;;5077628;28;20179;-78
2021/12/12 01:24:39;;;;;;;23.43;9.43;;;2.90;99.90;;;;;;5059832;28;20206;-78
2021/12/12 01:27:07;;;;;;;16.53;8.73;;;2.90;99.90;;;;;;5078209;28;20216;-78
2021/12/12 01:29:33;;;;;;;22.53;8.70;;;3.00;99.90;;;;;;5077971;28;20190;-78
2021/12/12 01:32:03;;;;;;;20.27;9.23;;;3.00;99.90;;;;;;5078057;28;20236;-79
2021/12/12 01:34:31;;;;;;;16.87;8.67;;;3.00;99.90;;;;;;5059272;28;20262;-78
2021/12/12 01:40:15;;;;;;;18.63;8.93;;;3.00;99.90;;;;;;5078760;28;20191;-78
2021/12/12 01:42:44;;;;;;;17.10;8.03;;;3.00;99.90;;;;;;5058130;28;20191;-76
2021/12/12 01:45:17;;;;;;;21.37;8.50;;;3.00;99.90;;;;;;5074023;28;20214;-76
2021/12/12 01:47:56;;;;;;;15.90;8.37;;;3.00;99.90;;;;;;5073414;28;20254;-76
2021/12/12 01:50:51;;;;;;;15.37;7.80;;;3.00;99.90;;;;;;5074166;28;20550;-76
2021/12/12 01:53:20;;;;;;;19.00;7.73;;;3.10;99.90;;;;;;5052052;28;20571;-76
2021/12/12 01:55:58;;;;;;;16.47;8.23;;;3.10;99.90;;;;;;5053830;28;20206;-76
2021/12/12 01:58:28;;;;;;;17.77;7.70;;;3.10;99.90;;;;;;5053976;28;20625;-76
2021/12/12 02:01:04;;;;;;;28.60;8.40;;;3.10;99.90;;;;;;5039592;28;20211;-77
2021/12/12 02:03:32;;;;;;;14.00;7.43;;;3.10;99.90;;;;;;5073765;28;20625;-76
2021/12/12 02:06:00;;;;;;;15.47;7.60;;;3.10;99.90;;;;;;5073918;28;20244;-76
2021/12/12 02:08:29;;;;;;;16.53;7.70;;;3.20;99.90;;;;;;5055707;28;20210;-76
2021/12/12 02:11:01;;;;;;;13.07;6.87;;;3.20;99.90;;;;;;5055509;28;20245;-76
2021/12/12 02:13:30;;;;;;;12.33;7.47;;;3.20;99.90;;;;;;5073390;28;20183;-76
2021/12/12 02:15:59;;;;;;;13.20;7.10;;;3.20;99.90;;;;;;5055719;28;20238;-76
2021/12/12 02:18:31;;;;;;;14.40;7.00;;;3.20;99.90;;;;;;5073469;28;20200;-76
2021/12/12 02:21:10;;;;;;;11.67;7.00;;;3.20;99.90;;;;;;5073014;28;20264;-77
2021/12/12 02:24:18;;;;;;;21.00;7.13;;;3.20;99.90;;;;;;5055857;28;20206;-76
2021/12/12 02:37:22;;;;;;;12.93;6.63;;;3.30;99.90;;;;;;5066734;23;20243;-93
2021/12/12 02:39:48;;;;;;;17.37;6.33;;;3.40;99.90;;;;;;5046709;28;20194;-93
2021/12/12 02:42:17;;;;;;;15.13;6.43;;;3.40;99.90;;;;;;5045273;28;20191;-93
2021/12/12 02:44:45;;;;;;;12.93;5.93;;;3.40;99.90;;;;;;5061813;28;20203;-93
2021/12/12 02:47:17;;;;;;;14.70;5.70;;;3.40;99.90;;;;;;5052403;28;20188;-93
2021/12/12 02:52:28;;;;;;;15.53;5.53;;;3.50;99.90;;;;;;5062702;28;20178;-93
2021/12/12 02:54:57;;;;;;;15.93;6.17;;;3.40;99.90;;;;;;5044603;28;20210;-95
2021/12/12 02:57:23;;;;;;;10.47;5.50;;;3.50;99.90;;;;;;5044306;28;20191;-95
2021/12/12 02:59:50;;;;;;;14.70;6.07;;;3.50;99.90;;;;;;5044551;28;20206;-95
2021/12/12 03:02:27;;;;;;;15.10;6.37;;;3.50;99.90;;;;;;5043447;28;20183;-95
2021/12/12 03:04:57;;;;;;;13.23;5.47;;;3.50;99.90;;;;;;5043741;28;20207;-95
2021/12/12 03:07:24;;;;;;;13.27;5.37;;;3.50;99.90;;;;;;5045246;28;20187;-95
2021/12/12 03:09:55;;;;;;;9.70;5.00;;;3.90;99.90;;;;;;5044843;28;20183;-95
2021/12/12 03:12:33;;;;;;;9.33;5.30;;;3.60;99.90;;;;;;5044608;28;20184;-95
2021/12/12 03:15:12;;;;;;;8.27;5.20;;;3.60;99.90;;;;;;5045964;28;20211;-95
2021/12/12 03:17:39;;;;;;;12.37;5.03;;;3.60;99.90;;;;;;5045408;28;20239;-95
2021/12/12 03:20:24;;;;;;;13.43;5.77;;;3.60;99.90;;;;;;5043828;28;20219;-95
2021/12/12 03:23:16;;;;;;;16.13;5.47;;;3.60;99.90;;;;;;5044533;28;20176;-95
2021/12/12 03:25:43;;;;;;;13.13;5.67;;;3.60;99.90;;;;;;5035626;28;20215;-95
2021/12/12 03:28:11;;;;;;;14.10;5.03;;;3.70;99.90;;;;;;5043211;28;20227;-94
2021/12/12 03:30:38;;;;;;;10.53;4.37;;;3.70;99.90;;;;;;5043409;28;20259;-95
2021/12/12 03:33:05;;;;;;;14.97;5.63;;;3.70;99.90;;;;;;5043582;28;20191;-96
2021/12/12 03:35:30;;;;;;;10.13;4.80;;;3.70;99.90;;;;;;5043617;28;20280;-95
2021/12/12 03:37:56;;;;;;;15.87;5.07;;;3.70;99.90;;;;;;5043181;28;20175;-95
2021/12/12 03:40:29;;;;;;;10.70;4.70;;;3.80;99.90;;;;;;5041809;28;20214;-95
2021/12/12 03:43:00;;;;;;;9.77;5.40;;;3.80;99.90;;;;;;5045759;28;20240;-95
2021/12/12 03:45:27;;;;;;;12.57;4.77;;;3.80;99.90;;;;;;5044877;28;20215;-95
2021/12/12 03:48:02;;;;;;;9.40;5.03;;;3.80;99.90;;;;;;5042502;28;20287;-95
2021/12/12 03:50:31;;;;;;;11.77;4.43;;;3.80;99.90;;;;;;5043791;28;20195;-95
2021/12/12 03:52:58;;;;;;;12.10;5.10;;;3.80;99.90;;;;;;5061607;28;20191;-95
2021/12/12 03:55:26;;;;;;;7.93;4.50;;;3.90;99.90;;;;;;5062188;28;20207;-94
2021/12/12 03:57:52;;;;;;;7.80;4.53;;;3.80;99.90;;;;;;5050947;28;20183;-95
2021/12/12 04:00:24;;;;;;;11.00;5.13;;;3.80;99.90;;;;;;5061186;28;20247;-95
2021/12/12 04:02:50;;;;;;;12.60;4.93;;;3.90;99.90;;;;;;5053209;28;20188;-95
2021/12/12 04:05:16;;;;;;;13.33;5.63;;;3.90;99.90;;;;;;5045236;28;20249;-95
2021/12/12 04:07:43;;;;;;;12.83;5.00;;;3.80;99.90;;;;;;5045618;28;20230;-95
2021/12/12 04:10:12;;;;;;;13.53;5.93;;;4.50;99.90;;;;;;5046425;28;20191;-95
2021/12/12 04:12:38;;;;;;;16.27;5.40;;;3.90;99.90;;;;;;5053906;28;20195;-95
2021/12/12 04:15:04;;;;;;;12.43;5.27;;;3.80;99.90;;;;;;5063751;28;20238;-96
2021/12/12 04:17:31;;;;;;;10.43;5.23;;;3.90;99.90;;;;;;5081049;28;20183;-95
2021/12/12 04:20:01;;;;;;;11.87;5.63;;;3.90;99.90;;;;;;5063611;28;20188;-95
2021/12/12 04:22:26;;;;;;;12.33;4.80;;;3.90;99.90;;;;;;5063734;28;20219;-95
2021/12/12 04:24:55;;;;;;;16.50;5.10;;;3.90;99.90;;;;;;5068307;28;20215;-95
2021/12/12 04:27:22;;;;;;;10.23;4.60;;;3.90;99.90;;;;;;5067711;28;20206;-95
2021/12/12 04:29:51;;;;;;;14.03;5.67;;;3.90;99.90;;;;;;5050302;28;20195;-95
2021/12/12 04:32:21;;;;;;;12.17;5.27;;;3.90;99.90;;;;;;5064442;28;20180;-95
2021/12/12 04:34:51;;;;;;;10.27;5.57;;;3.90;99.90;;;;;;5064151;28;20196;-95
2021/12/12 04:37:19;;;;;;;17.57;5.37;;;3.90;99.90;;;;;;5064103;28;20195;-96
2021/12/12 04:39:49;;;;;;;14.87;5.57;;;3.90;99.90;;;;;;5061520;28;20195;-95
2021/12/12 04:42:21;;;;;;;9.40;4.90;;;3.90;99.90;;;;;;5049987;28;20641;-95
2021/12/12 04:44:53;;;;;;;13.77;5.73;;;3.90;99.90;;;;;;5059386;28;20206;-95
2021/12/12 04:50:52;;;;;;;10.97;5.07;;;4.00;99.90;;;;;;5081165;28;20283;-95
2021/12/12 04:53:30;;;;;;;10.83;5.60;;;4.00;99.90;;;;;;5063704;28;20251;-95
2021/12/12 04:56:15;;;;;;;16.57;4.97;;;4.00;99.90;;;;;;5058582;28;20207;-95
2021/12/12 04:58:48;;;;;;;13.17;5.50;;;4.00;99.90;;;;;;5049170;28;20183;-96
2021/12/12 05:01:39;;;;;;;15.90;7.00;;;4.00;99.90;;;;;;5051082;28;20215;-95
2021/12/12 05:04:19;;;;;;;20.50;6.40;;;4.00;99.90;;;;;;5056229;28;20196;-95
2021/12/12 05:06:58;;;;;;;15.63;5.50;;;3.90;99.90;;;;;;5053269;28;20198;-95
2021/12/12 05:09:32;;;;;;;17.17;5.90;;;4.10;99.90;;;;;;5069985;28;20167;-96
2021/12/12 05:12:02;;;;;;;13.23;5.60;;;4.10;99.90;;;;;;5049802;28;20176;-96
2021/12/12 05:14:40;;;;;;;13.33;5.80;;;4.10;99.90;;;;;;5050661;28;20207;-95
2021/12/12 05:17:11;;;;;;;11.80;5.33;;;4.10;99.90;;;;;;5066356;28;20198;-95
2021/12/12 05:19:48;;;;;;;19.13;5.80;;;4.10;99.90;;;;;;5046874;28;20194;-95
2021/12/12 05:22:22;;;;;;;12.23;5.80;;;4.10;99.90;;;;;;5047681;28;20224;-95
2021/12/12 05:24:52;;;;;;;13.20;5.67;;;4.10;99.90;;;;;;5070974;28;20206;-95
2021/12/12 05:27:22;;;;;;;14.67;6.13;;;4.20;99.90;;;;;;5057529;28;20187;-95
2021/12/12 05:29:54;;;;;;;14.37;6.17;;;4.20;99.90;;;;;;5049793;28;20651;-95
2021/12/12 05:32:20;;;;;;;20.70;6.50;;;4.20;99.90;;;;;;5044539;28;20266;-95
2021/12/12 05:34:49;;;;;;;12.67;5.63;;;4.20;99.90;;;;;;5043630;28;20729;-95
2021/12/12 05:37:17;;;;;;;18.73;6.13;;;4.20;99.90;;;;;;5045157;28;20203;-95
2021/12/12 05:39:43;;;;;;;13.20;6.40;;;4.20;99.90;;;;;;5044719;28;20672;-95
2021/12/12 05:42:09;;;;;;;17.80;6.73;;;4.30;99.90;;;;;;5045479;28;20195;-95
2021/12/12 05:44:35;;;;;;;15.37;6.60;;;4.30;99.90;;;;;;5046606;28;20697;-95
2021/12/12 05:47:05;;;;;;;23.47;6.60;;;4.30;99.90;;;;;;5065626;28;20184;-94
2021/12/12 05:49:32;;;;;;;13.73;6.50;;;4.30;99.90;;;;;;5046258;28;20277;-94
2021/12/12 05:51:59;;;;;;;19.93;6.47;;;4.30;99.90;;;;;;5046571;28;20248;-95
2021/12/12 05:54:29;;;;;;;16.67;5.77;;;4.30;99.90;;;;;;5044881;28;20205;-95
2021/12/12 05:56:58;;;;;;;11.27;6.10;;;4.30;99.90;;;;;;5049639;28;20183;-95
2021/12/12 05:59:24;;;;;;;14.87;6.60;;;4.30;99.90;;;;;;5046183;28;20202;-94
2021/12/12 06:01:50;;;;;;;14.20;6.83;;;4.30;99.90;;;;;;5046157;28;20238;-94
2021/12/12 06:04:17;;;;;;;16.30;6.87;;;4.30;99.90;;;;;;5061181;28;20203;-94
2021/12/12 06:06:44;;;;;;;14.40;7.30;;;4.30;99.90;;;;;;5044570;28;20254;-94
2021/12/12 06:09:12;;;;;;;14.07;7.03;;;4.40;99.90;;;;;;5046051;28;20188;-94
2021/12/12 06:11:41;;;;;;;13.03;6.57;;;4.40;99.90;;;;;;5047433;28;20191;-95
2021/12/12 06:14:07;;;;;;;18.03;7.50;;;4.40;99.90;;;;;;5065313;28;20581;-95
2021/12/12 06:16:34;;;;;;;14.00;6.83;;;4.40;99.90;;;;;;5045574;28;20290;-94
2021/12/12 06:19:13;;;;;;;13.90;6.30;;;4.40;99.90;;;;;;5044412;28;20202;-94
2021/12/12 06:21:40;;;;;;;17.53;7.20;;;4.90;99.90;;;;;;5045825;28;20211;-94
2021/12/12 06:24:06;;;;;;;14.20;7.50;;;4.50;99.90;;;;;;5047801;28;20203;-94
2021/12/12 06:26:33;;;;;;;15.37;6.77;;;4.40;99.90;;;;;;5043859;28;20218;-94
2021/12/12 06:28:59;;;;;;;13.90;6.60;;;4.40;99.90;;;;;;5060774;28;20183;-94
2021/12/12 06:31:24;;;;;;;13.43;7.40;;;4.50;99.90;;;;;;5042512;28;20187;-94
2021/12/12 06:33:51;;;;;;;18.20;7.33;;;4.50;99.90;;;;;;5042565;28;20222;-94
2021/12/12 06:36:16;;;;;;;13.33;7.67;;;4.50;99.90;;;;;;5047548;28;20285;-94
2021/12/12 06:38:46;;;;;;;12.20;7.73;;;4.50;99.90;;;;;;5051547;28;20187;-94
2021/12/12 06:41:14;;;;;;;16.97;7.23;;;5.00;99.90;;;;;;5056586;28;20215;-95
2021/12/12 06:43:42;;;;;;;16.63;8.43;;;4.50;99.90;;;;;;5061250;28;20172;-95
2021/12/12 06:46:09;;;;;;;12.57;6.97;;;4.50;99.90;;;;;;5045984;28;20719;-94
2021/12/12 06:48:36;;;;;;;12.77;7.17;;;4.50;99.90;;;;;;5043184;28;20184;-94
2021/12/12 06:51:03;;;;;;;17.47;8.13;;;4.50;99.90;;;;;;5061511;28;20206;-94
2021/12/12 06:53:33;;;;;;;11.33;7.57;;;4.50;99.90;;;;;;5043336;28;20556;-94
2021/12/12 06:55:59;;;;;;;11.50;7.03;;;4.50;99.90;;;;;;5044190;28;20261;-94
2021/12/12 06:58:29;;;;;;;16.07;7.30;;;4.70;99.90;;;;;;5046542;28;20180;-94
2021/12/12 07:01:00;;;;;;;10.17;6.53;;;4.60;99.90;;;;;;5044270;28;20638;-95
2021/12/12 07:03:26;;;;;;;11.20;6.90;;;4.60;99.90;;;;;;5043997;28;20179;-94
2021/12/12 07:05:52;;;;;;;12.10;7.17;;;4.60;99.90;;;;;;5046495;28;20203;-94
2021/12/12 07:08:21;;;;;;;10.60;6.43;;;4.60;99.90;;;;;;5042063;28;20188;-94
2021/12/12 07:10:46;;;;;;;10.87;7.37;;;4.60;99.90;;;;;;5042115;28;20188;-94
2021/12/12 07:13:13;;;;;;;9.90;6.57;;;4.60;99.90;;;;;;5059187;28;20191;-94
2021/12/12 07:15:44;;;;;;;10.27;6.63;;;5.90;99.90;;;;;;5041092;28;20215;-94
2021/12/12 07:18:13;;;;;;;10.90;6.77;;;4.60;99.90;;;;;;5041104;28;20190;-94
2021/12/12 07:20:41;;;;;;;12.23;6.30;;;4.60;99.90;;;;;;5041570;28;20207;-95
2021/12/12 07:23:09;;;;;;;11.23;6.83;;;4.70;99.90;;;;;;5041598;28;20184;-95
2021/12/12 07:25:36;;;;;;;9.93;6.57;;;4.70;99.90;;;;;;5059733;28;20256;-93
2021/12/12 07:28:02;;;;;;;13.07;7.77;;;4.70;99.90;;;;;;5059733;28;20303;-93
2021/12/12 07:30:29;;;;;;;13.50;7.77;;;4.70;99.90;;;;;;5049510;28;20186;-93
2021/12/12 07:32:55;;;;;;;12.93;7.80;;;4.70;99.90;;;;;;5042504;28;20256;-93
2021/12/12 07:35:21;;;;;;;11.73;7.23;;;4.70;99.90;;;;;;5040079;28;20211;-93
2021/12/12 07:37:48;;;;;;;11.40;7.70;;;4.70;99.90;;;;;;5041255;28;20180;-93
2021/12/12 07:40:14;;;;;;;11.80;7.57;;;4.80;99.90;;;;;;5041280;28;20618;-93
2021/12/12 07:42:41;;;;;;;12.80;7.50;;;4.70;99.90;;;;;;5044297;28;20184;-93
2021/12/12 07:45:08;;;;;;;12.60;7.53;;;4.80;99.90;;;;;;5044283;28;20235;-93
2021/12/12 07:47:34;;;;;;;11.77;7.90;;;4.80;99.90;;;;;;5046049;28;20233;-93
2021/12/12 07:50:02;;;;;;;15.50;8.27;;;4.80;99.90;;;;;;5044311;28;20187;-94
2021/12/12 07:52:29;;;;;;;14.37;8.53;;;4.80;99.90;;;;;;5048656;28;20198;-94
2021/12/12 07:54:57;;;;;;;13.57;7.33;;;4.70;99.90;;;;;;5069889;28;20207;-94
2021/12/12 07:57:26;;;;;;;14.40;8.03;;;4.90;99.90;;;;;;5048852;28;20187;-94
2021/12/12 07:59:53;;;;;;;9.83;7.67;;;4.90;99.90;;;;;;5045044;28;20183;-94
2021/12/12 08:02:21;;;;;;;9.23;6.93;;;4.90;99.90;;;;;;5047509;28;20184;-93
2021/12/12 08:04:47;;;;;;;11.07;7.60;;;4.90;99.90;;;;;;5072796;28;20211;-94
2021/12/12 08:07:29;;;;;;;10.67;7.83;;;4.90;99.90;;;;;;5050886;28;20195;-93
2021/12/12 08:09:55;;;;;;;7.90;7.10;;;4.90;99.90;;;;;;5051646;28;20183;-95
2021/12/12 08:12:25;;;;;;;13.13;6.93;;;5.00;99.90;;;;;;5053799;28;20188;-94
2021/12/12 08:14:51;;;;;;;12.80;7.73;;;5.00;99.90;;;;;;5057437;28;20204;-95
2021/12/12 08:17:20;;;;;;;9.83;7.20;;;5.00;99.90;;;;;;5051937;28;20258;-94
2021/12/12 08:19:48;;;;;;;10.83;7.20;;;5.00;99.90;;;;;;5047106;28;20186;-94
2021/12/12 08:22:14;;;;;;;12.27;7.40;;;5.00;99.90;;;;;;5066983;28;20206;-95
2021/12/12 08:24:41;;;;;;;13.07;8.40;;;5.00;99.90;;;;;;5044498;28;20199;-94
2021/12/12 08:27:09;;;;;;;12.83;7.97;;;5.00;99.90;;;;;;5057620;28;20179;-94
2021/12/12 08:29:36;;;;;;;14.77;8.47;;;5.10;99.90;;;;;;5062713;28;20171;-94
2021/12/12 08:32:10;;;;;;;12.80;9.20;;;5.00;99.90;;;;;;5055523;28;20179;-94
2021/12/12 08:34:36;;;;;;;12.30;8.57;;;5.10;99.90;;;;;;5051814;28;20281;-94
2021/12/12 08:37:03;;;;;;;13.57;8.80;;;5.10;99.90;;;;;;5061397;28;20199;-95
2021/12/12 08:39:29;;;;;;;10.87;8.70;;;5.10;99.90;;;;;;5063245;28;20172;-96
2021/12/12 08:41:57;;;;;;;15.03;9.53;;;5.10;99.90;;;;;;5063755;28;20202;-95
2021/12/12 08:44:24;;;;;;;17.40;9.27;;;5.10;99.90;;;;;;5080042;28;20206;-96
2021/12/12 08:46:54;;;;;;;13.83;9.37;;;5.10;99.90;;;;;;5050563;28;20230;-95
2021/12/12 08:49:24;;;;;;;14.53;9.27;;;5.10;99.90;;;;;;5072874;28;20176;-93
2021/12/12 08:51:59;;;;;;;11.70;8.63;;;5.20;99.90;;;;;;5061638;28;20179;-93
2021/12/12 08:54:28;;;;;;;15.80;8.90;;;5.20;99.90;;;;;;5078885;28;20187;-95
2021/12/12 08:57:12;;;;;;;14.10;8.63;;;5.50;99.90;;;;;;5063282;28;20224;-95
2021/12/12 08:59:45;;;;;;;12.77;8.40;;;4.90;99.90;;;;;;5078808;28;20183;-94
2021/12/12 09:02:15;;;;;;;14.03;8.57;;;5.30;99.90;;;;;;5059094;28;20211;-93
2021/12/12 09:04:54;;;;;;;15.53;9.40;;;5.60;99.90;;;;;;5076450;28;20248;-95
2021/12/12 09:07:25;;;;;;;13.37;8.93;;;5.50;99.90;;;;;;5080405;28;20174;-95
2021/12/12 09:10:09;;;;;;;14.80;9.10;;;5.40;99.90;;;;;;5063297;28;20171;-95
2021/12/12 09:12:46;;;;;;;13.73;9.10;;;5.30;99.90;;;;;;5079625;28;20164;-96
2021/12/12 09:15:31;;;;;;;14.30;10.33;;;5.30;99.90;;;;;;5063205;28;20202;-95
2021/12/12 09:18:04;;;;;;;13.10;9.83;;;5.40;99.90;;;;;;5063011;28;20168;-95
2021/12/12 09:20:47;;;;;;;15.60;10.63;;;5.40;99.90;;;;;;5062353;28;20203;-96
2021/12/12 09:23:25;;;;;;;16.13;11.20;;;5.40;99.90;;;;;;5080511;28;20152;-95
2021/12/12 09:26:21;;;;;;;20.50;11.93;;;5.50;99.90;;;;;;5063080;28;20271;-96
2021/12/12 09:29:12;;;;;;;19.27;11.97;;;5.50;99.90;;;;;;5062920;28;20203;-96
2021/12/12 09:31:50;;;;;;;14.67;10.87;;;5.60;99.90;;;;;;5080269;28;20175;-95
2021/12/12 09:34:27;;;;;;;17.90;11.33;;;5.40;99.90;;;;;;5062771;28;20294;-96
2021/12/12 09:37:12;;;;;;;19.60;11.70;;;5.60;99.90;;;;;;5062874;28;20202;-96
2021/12/12 09:39:43;;;;;;;18.07;11.40;;;5.90;99.90;;;;;;5062976;28;20160;-96
2021/12/12 09:42:35;;;;;;;22.13;10.73;;;5.60;99.90;;;;;;5079906;28;20210;-96
2021/12/12 09:45:06;;;;;;;15.70;9.93;;;5.60;99.90;;;;;;5054546;28;20201;-96
2021/12/12 09:48:13;;;;;;;18.87;9.77;;;5.60;99.90;;;;;;5062730;28;20171;-96
2021/12/12 09:51:16;;;;;;;17.13;10.13;;;5.70;99.90;;;;;;5062537;28;20184;-96
2021/12/12 09:56:44;;;;;;;16.20;10.10;;;5.70;99.90;;;;;;5074361;28;20672;-79
2021/12/12 09:59:31;;;;;;;13.60;9.73;;;5.70;99.90;;;;;;5058678;28;20267;-79
2021/12/12 10:02:19;;;;;;;14.67;9.10;;;5.80;99.90;;;;;;5075952;28;20280;-79
2021/12/12 10:05:06;;;;;;;13.50;9.00;;;5.80;99.90;;;;;;5079588;23;20237;-78
2021/12/12 10:08:03;;;;;;;15.33;8.77;;;5.80;99.90;;;;;;5057181;28;20206;-77
2021/12/12 10:10:32;;;;;;;13.83;8.80;;;5.90;99.90;;;;;;5050093;28;20185;-78
2021/12/12 10:13:04;;;;;;;12.87;8.67;;;5.90;99.90;;;;;;5058252;28;20189;-78
2021/12/12 10:15:37;;;;;;;11.10;8.03;;;5.90;99.90;;;;;;5057887;28;20245;-78
2021/12/12 10:18:11;;;;;;;12.50;8.30;;;5.90;99.90;;;;;;5075592;28;20218;-78
2021/12/12 10:21:01;;;;;;;16.77;8.30;;;6.00;99.90;;;;;;5057443;28;20203;-79
2021/12/12 10:23:46;;;;;;;14.93;8.50;;;6.00;99.90;;;;;;5058070;28;20645;-79
2021/12/12 10:26:18;;;;;;;12.03;7.80;;;6.00;99.90;;;;;;5075993;28;20181;-79
2021/12/12 10:28:49;;;;;;;11.20;7.83;;;6.00;99.90;;;;;;5057697;28;20178;-78
2021/12/12 10:31:24;;;;;;;12.90;9.00;;;6.00;99.90;;;;;;5076091;28;20182;-78
2021/12/12 10:34:08;;;;;;;13.03;8.63;;;6.10;99.90;;;;;;5075706;28;20198;-77
2021/12/12 10:37:10;;;;;;;15.53;8.80;;;6.10;99.90;;;;;;5057318;28;20179;-77
2021/12/12 10:39:40;;;;;;;12.97;7.80;;;6.10;99.90;;;;;;5067208;28;20214;-77
2021/12/12 10:42:21;;;;;;;9.60;7.20;;;6.10;99.90;;;;;;5057447;28;20209;-78
2021/12/12 10:44:57;;;;;;;14.90;6.77;;;6.10;99.90;;;;;;5075810;28;20549;-78
2021/12/12 10:47:33;;;;;;;14.27;7.67;;;6.10;99.90;;;;;;5057137;28;20178;-79
2021/12/12 10:50:10;;;;;;;16.43;7.50;;;6.20;99.90;;;;;;5057796;28;20315;-78
2021/12/12 10:52:47;;;;;;;14.33;7.00;;;6.20;99.90;;;;;;5058052;28;20194;-78
2021/12/12 10:55:24;;;;;;;14.10;8.27;;;6.20;99.90;;;;;;5076321;28;20200;-78
2021/12/12 10:58:28;;;;;;;13.00;7.40;;;6.20;99.90;;;;;;5075124;28;20206;-78
2021/12/12 11:01:03;;;;;;;12.50;7.50;;;6.20;99.90;;;;;;5075613;28;20736;-77
2021/12/12 11:03:58;;;;;;;17.37;8.27;;;6.20;99.90;;;;;;5075231;28;20582;-78
2021/12/12 11:06:29;;;;;;;13.73;7.77;;;6.20;99.90;;;;;;5067792;28;20224;-78
2021/12/12 11:09:12;;;;;;;17.23;7.53;;;6.20;99.90;;;;;;5079436;28;20175;-78
2021/12/12 11:11:43;;;;;;;10.53;7.27;;;6.20;99.90;;;;;;5080086;28;20167;-79
2021/12/12 11:14:19;;;;;;;15.10;7.50;;;6.20;99.90;;;;;;5079363;28;20207;-78
2021/12/12 11:17:22;;;;;;;11.70;6.80;;;6.30;99.90;;;;;;5079878;28;20616;-79
2021/12/12 11:20:14;;;;;;;17.60;8.13;;;6.30;99.90;;;;;;5044721;28;20198;-79
2021/12/12 11:22:46;;;;;;;8.93;6.90;;;6.30;99.90;;;;;;5063211;28;20167;-79
2021/12/12 11:25:27;;;;;;;11.83;8.03;;;6.30;99.90;;;;;;5062730;28;20191;-79
2021/12/12 11:28:21;;;;;;;15.37;8.60;;;6.30;99.90;;;;;;5065380;28;20167;-78
2021/12/12 11:30:55;;;;;;;12.57;7.23;;;6.30;99.90;;;;;;5054822;28;20179;-79
2021/12/12 11:33:23;;;;;;;15.13;7.57;;;6.30;99.90;;;;;;5082890;28;20252;-79
2021/12/12 11:35:54;;;;;;;13.50;8.27;;;6.40;99.90;;;;;;5082969;28;20213;-78
2021/12/12 11:38:35;;;;;;;10.57;7.97;;;6.40;99.90;;;;;;5081923;28;20239;-79
2021/12/12 11:41:18;;;;;;;10.83;7.17;;;6.40;99.90;;;;;;5081794;28;20198;-79
2021/12/12 11:44:05;;;;;;;13.17;7.57;;;6.40;99.90;;;;;;5082412;28;20195;-78
2021/12/12 11:46:53;;;;;;;12.60;7.23;;;6.40;99.90;;;;;;5064149;28;20175;-79
2021/12/12 11:49:50;;;;;;;16.07;7.77;;;6.40;99.90;;;;;;5081218;28;20182;-81
2021/12/12 11:52:33;;;;;;;13.20;7.87;;;6.40;99.90;;;;;;5076240;28;20175;-80
2021/12/12 11:55:06;;;;;;;13.57;7.97;;;6.40;99.90;;;;;;5080788;28;20571;-79
2021/12/12 11:57:41;;;;;;;12.33;7.60;;;6.50;99.90;;;;;;5080855;28;20184;-80
2021/12/12 12:00:15;;;;;;;15.17;7.60;;;6.50;99.90;;;;;;5080427;28;20175;-80
2021/12/12 12:03:21;;;;;;;14.37;8.67;;;6.50;99.90;;;;;;5062914;28;20258;-80
2021/12/12 12:05:58;;;;;;;13.37;7.97;;;6.50;99.90;;;;;;5071114;28;20183;-79
2021/12/12 12:08:46;;;;;;;11.37;7.90;;;6.50;99.90;;;;;;5081302;28;20544;-80
2021/12/12 12:11:42;;;;;;;14.20;8.10;;;6.50;99.90;;;;;;5081069;28;20187;-79
2021/12/12 12:14:28;;;;;;;12.90;7.77;;;6.50;99.90;;;;;;5081667;28;20195;-80
2021/12/12 12:17:14;;;;;;;10.77;7.37;;;6.50;99.90;;;;;;5081030;28;20202;-78
2021/12/12 12:20:12;;;;;;;11.97;7.30;;;6.50;99.90;;;;;;5081940;28;20202;-80
2021/12/12 12:22:50;;;;;;;9.80;7.27;;;6.60;99.90;;;;;;5064431;28;20215;-79
2021/12/12 12:26:50;;;;;;;12.23;8.67;;;6.60;99.90;;;;;;5059971;28;20209;-79
2021/12/12 12:28:17;;;;;;;9.63;7.83;;;6.60;99.90;;;;;;5077924;28;20213;-79
2021/12/12 12:31:19;;;;;;;12.53;7.40;;;6.60;99.90;;;;;;5079867;28;20183;-78
2021/12/12 12:34:44;;;;;;;12.10;8.23;;;6.60;99.90;;;;;;5081457;28;20254;-80
2021/12/12 12:38:08;;;;;;;14.67;7.50;;;6.60;99.90;;;;;;5081510;28;20183;-78
2021/12/12 12:41:11;;;;;;;14.87;8.70;;;6.60;99.90;;;;;;5063830;28;20267;-79
2021/12/12 12:44:07;;;;;;;11.10;8.57;;;6.60;99.90;;;;;;5064235;28;20198;-79
2021/12/12 12:46:54;;;;;;;12.33;8.43;;;6.70;99.90;;;;;;5063645;28;20629;-79
2021/12/12 12:50:01;;;;;;;12.47;8.33;;;6.70;99.90;;;;;;5082395;28;20177;-78
2021/12/12 12:52:27;;;;;;;12.80;8.43;;;6.70;99.90;;;;;;5098064;28;20202;-79
2021/12/12 12:55:11;;;;;;;11.37;7.80;;;6.70;99.90;;;;;;5088004;28;20561;-79
2021/12/12 12:57:41;;;;;;;10.03;8.20;;;6.70;99.90;;;;;;5082321;28;20183;-79
2021/12/12 13:00:17;;;;;;;12.87;7.90;;;6.70;99.90;;;;;;5082771;28;20267;-79
2021/12/12 13:03:04;;;;;;;10.93;8.20;;;6.70;99.90;;;;;;5064291;28;20227;-79
2021/12/12 13:05:53;;;;;;;10.93;7.73;;;6.70;99.90;;;;;;5064633;28;20219;-79
2021/12/12 13:08:53;;;;;;;10.20;7.80;;;6.70;99.90;;;;;;5064090;28;20187;-79
2021/12/12 13:11:47;;;;;;;11.27;8.07;;;6.80;99.90;;;;;;5081380;28;20274;-79
2021/12/12 13:14:42;;;;;;;9.77;8.20;;;6.80;99.90;;;;;;5083180;28;20260;-79
2021/12/12 13:17:21;;;;;;;13.70;8.40;;;6.80;99.90;;;;;;5065545;28;20557;-79
2021/12/12 13:19:56;;;;;;;10.50;7.97;;;6.90;99.90;;;;;;5064523;28;20246;-79
2021/12/12 13:22:47;;;;;;;10.37;8.83;;;6.80;99.90;;;;;;5079478;28;20243;-78
2021/12/12 13:25:19;;;;;;;11.27;9.30;;;6.90;99.90;;;;;;5077949;28;20272;-78
2021/12/12 13:28:26;;;;;;;11.00;9.23;;;6.90;99.90;;;;;;5078227;28;20179;-78
2021/12/12 13:31:16;;;;;;;12.20;9.27;;;6.90;99.90;;;;;;5059935;28;20171;-78
2021/12/12 13:33:58;;;;;;;11.40;9.93;;;6.90;99.90;;;;;;5077508;28;20575;-77
2021/12/12 13:36:40;;;;;;;15.27;10.20;;;6.90;99.90;;;;;;5077777;28;20261;-78
2021/12/12 13:39:42;;;;;;;20.57;12.27;;;6.90;99.90;;;;;;5077985;28;20174;-78
2021/12/12 13:42:33;;;;;;;18.17;11.27;;;7.00;99.90;;;;;;5059466;28;20220;-78
2021/12/12 13:45:29;;;;;;;15.83;10.47;;;7.00;99.90;;;;;;5059188;28;20209;-79
2021/12/12 13:48:34;;;;;;;13.20;10.03;;;7.00;99.90;;;;;;5078224;28;20526;-79